Time;durP1;ratioP1;P1;durP2;ratioP2;P2;SDS_P1;SDS_P2;PMS_P1;PMS_P2;Temp;Humidity;BMP_temperature;BMP_pressure;BME280_temperature;BME280_humidity;BME280_pressure;Samples;Min_cycle;Max_cycle;Signal;HPM_P1;HPM_P2
2023/04/16 00:01:11;;;;;;;6.07;2.67;;;8.50;99.90;;;;;;5116708;28;20178;-57
2023/04/16 00:03:37;;;;;;;6.22;2.72;;;8.50;99.90;;;;;;5116633;28;20192;-57
2023/04/16 00:06:03;;;;;;;3.45;2.60;;;8.50;99.90;;;;;;5116468;28;20181;-57
2023/04/16 00:08:28;;;;;;;4.63;2.90;;;8.60;99.90;;;;;;5116827;28;20249;-57
2023/04/16 00:10:54;;;;;;;6.13;3.65;;;8.60;99.90;;;;;;5116560;28;20216;-57
2023/04/16 00:13:20;;;;;;;7.25;3.10;;;8.60;99.90;;;;;;5116416;28;20208;-57
2023/04/16 00:15:45;;;;;;;10.63;3.50;;;8.60;99.90;;;;;;5116449;28;20616;-57
2023/04/16 00:18:11;;;;;;;4.97;2.75;;;8.60;99.90;;;;;;5116286;28;20178;-57
2023/04/16 00:20:37;;;;;;;4.80;3.03;;;8.60;99.90;;;;;;5116461;28;20185;-57
2023/04/16 00:23:02;;;;;;;6.65;3.63;;;8.70;99.90;;;;;;5116475;28;20173;-57
2023/04/16 00:25:28;;;;;;;5.65;2.97;;;8.70;99.90;;;;;;5116313;28;20643;-57
2023/04/16 00:27:54;;;;;;;4.72;2.90;;;8.60;99.90;;;;;;5116190;28;20180;-57
2023/04/16 00:30:20;;;;;;;5.25;2.30;;;8.60;99.90;;;;;;5116171;28;20174;-57
2023/04/16 00:32:45;;;;;;;6.88;2.40;;;8.60;99.90;;;;;;5115996;28;20271;-57
2023/04/16 00:35:11;;;;;;;6.32;2.10;;;8.60;99.90;;;;;;5115152;28;20654;-57
2023/04/16 00:37:37;;;;;;;5.05;2.17;;;8.60;99.90;;;;;;5115983;28;20639;-57
2023/04/16 00:40:03;;;;;;;4.43;1.90;;;8.50;99.90;;;;;;5116147;28;20169;-57
2023/04/16 00:42:28;;;;;;;4.05;1.92;;;8.50;99.90;;;;;;5116031;28;20642;-57
2023/04/16 00:44:54;;;;;;;4.25;2.60;;;8.60;99.90;;;;;;5115910;28;20216;-57
2023/04/16 00:47:20;;;;;;;3.40;2.40;;;8.50;99.90;;;;;;5115786;28;20653;-57
2023/04/16 00:49:46;;;;;;;5.50;2.50;;;8.60;99.90;;;;;;5115504;28;20310;-57
2023/04/16 00:52:12;;;;;;;4.18;2.20;;;8.60;99.90;;;;;;5116054;28;20170;-57
2023/04/16 00:54:38;;;;;;;3.20;1.92;;;8.60;99.90;;;;;;5115610;28;20628;-57
2023/04/16 00:57:04;;;;;;;3.40;2.20;;;8.60;99.90;;;;;;5115712;28;20174;-57
2023/04/16 00:59:31;;;;;;;3.63;2.08;;;8.60;99.90;;;;;;5115545;28;20201;-57
2023/04/16 01:01:56;;;;;;;2.50;2.20;;;8.70;99.90;;;;;;5115532;28;20648;-57
2023/04/16 01:04:22;;;;;;;5.63;2.47;;;8.60;99.90;;;;;;5097394;28;20264;-57
2023/04/16 01:06:48;;;;;;;5.00;2.28;;;8.60;99.90;;;;;;5115346;28;20201;-57
2023/04/16 01:09:13;;;;;;;5.28;2.33;;;8.60;99.90;;;;;;5115349;28;20170;-57
2023/04/16 01:11:39;;;;;;;4.55;2.10;;;8.70;99.90;;;;;;5115491;28;20173;-57
2023/04/16 01:14:05;;;;;;;3.45;1.70;;;8.60;99.90;;;;;;5115170;28;20201;-57
2023/04/16 01:16:31;;;;;;;4.38;2.10;;;8.60;99.90;;;;;;5115210;28;20176;-57
2023/04/16 01:18:57;;;;;;;3.72;1.73;;;8.60;99.90;;;;;;5115166;28;20701;-57
2023/04/16 01:21:22;;;;;;;2.55;1.80;;;8.50;99.90;;;;;;5115285;28;20169;-57
2023/04/16 01:23:48;;;;;;;4.40;1.92;;;8.50;99.90;;;;;;5115288;28;20224;-57
2023/04/16 01:26:14;;;;;;;2.92;2.00;;;8.50;99.90;;;;;;5115297;28;20651;-57
2023/04/16 01:28:40;;;;;;;3.55;1.83;;;8.50;99.90;;;;;;5096907;28;20192;-57
2023/04/16 01:31:06;;;;;;;3.70;2.17;;;8.50;99.90;;;;;;5114977;28;20639;-57
2023/04/16 01:33:31;;;;;;;4.25;2.47;;;8.50;99.90;;;;;;5114732;28;20210;-57
2023/04/16 01:35:57;;;;;;;5.82;2.58;;;8.60;99.90;;;;;;5114991;28;20516;-57
2023/04/16 01:38:22;;;;;;;7.15;2.45;;;8.60;99.90;;;;;;5115003;28;20627;-57
2023/04/16 01:40:48;;;;;;;4.72;2.30;;;8.60;99.90;;;;;;5114878;28;20170;-57
2023/04/16 01:43:14;;;;;;;4.80;2.20;;;8.60;99.90;;;;;;5114783;28;20195;-57
2023/04/16 01:45:39;;;;;;;6.10;2.10;;;8.70;99.90;;;;;;5114880;28;20181;-57
2023/04/16 01:48:05;;;;;;;2.95;2.00;;;8.60;99.90;;;;;;5114438;28;20609;-57
2023/04/16 01:50:31;;;;;;;5.88;2.63;;;8.60;99.90;;;;;;5114484;28;20292;-57
2023/04/16 01:52:57;;;;;;;4.70;2.75;;;8.60;99.90;;;;;;5114682;28;20300;-57
2023/04/16 01:55:22;;;;;;;5.07;2.67;;;8.60;99.90;;;;;;5114624;28;20608;-57
2023/04/16 01:57:49;;;;;;;7.10;2.90;;;8.60;99.90;;;;;;5114455;28;20174;-57
2023/04/16 02:00:15;;;;;;;4.18;2.80;;;8.60;99.90;;;;;;5096111;28;20264;-57
2023/04/16 02:02:41;;;;;;;5.13;3.13;;;8.60;99.90;;;;;;5114253;28;20280;-57
2023/04/16 02:05:06;;;;;;;4.68;2.90;;;8.70;99.90;;;;;;5114187;28;20588;-57
2023/04/16 02:07:32;;;;;;;5.75;2.88;;;8.70;99.90;;;;;;5114114;28;20181;-57
2023/04/16 02:09:58;;;;;;;4.45;2.78;;;8.70;99.90;;;;;;5114248;28;20176;-57
2023/04/16 02:12:24;;;;;;;6.10;2.72;;;8.70;99.90;;;;;;5114231;28;20208;-57
2023/04/16 02:14:50;;;;;;;6.88;2.83;;;8.60;99.90;;;;;;5114012;28;20224;-57
2023/04/16 02:17:16;;;;;;;6.15;2.60;;;8.60;99.90;;;;;;5114095;28;20173;-57
2023/04/16 02:19:41;;;;;;;5.15;2.38;;;8.60;99.90;;;;;;5113847;28;20173;-57
2023/04/16 02:22:07;;;;;;;4.45;2.15;;;8.70;99.90;;;;;;5113937;28;20249;-57
2023/04/16 02:24:32;;;;;;;5.72;2.65;;;8.70;99.90;;;;;;5113896;28;20180;-57
2023/04/16 02:26:58;;;;;;;7.18;3.00;;;8.70;99.90;;;;;;5114031;28;20169;-57
2023/04/16 02:29:24;;;;;;;5.95;3.03;;;8.70;99.90;;;;;;5113925;28;20205;-57
2023/04/16 02:31:49;;;;;;;3.42;2.05;;;8.70;99.90;;;;;;5113820;28;20260;-57
2023/04/16 02:34:15;;;;;;;3.80;2.25;;;8.70;99.90;;;;;;5095547;28;20217;-57
2023/04/16 02:36:41;;;;;;;4.07;1.95;;;8.80;99.90;;;;;;5095744;28;20631;-57
2023/04/16 02:39:07;;;;;;;5.32;2.10;;;8.70;99.90;;;;;;5095607;28;20259;-57
2023/04/16 02:41:32;;;;;;;6.05;2.20;;;8.70;99.90;;;;;;5113704;28;20697;-57
2023/04/16 02:43:58;;;;;;;7.45;2.17;;;8.70;99.90;;;;;;5113647;28;20271;-57
2023/04/16 02:46:24;;;;;;;6.00;1.90;;;8.60;99.90;;;;;;5113701;28;20620;-57
2023/04/16 02:48:49;;;;;;;3.30;1.63;;;8.60;99.90;;;;;;5113293;28;20224;-57
2023/04/16 02:51:15;;;;;;;3.08;1.92;;;8.60;99.90;;;;;;5095638;28;20181;-57
2023/04/16 02:53:44;;;;;;;6.07;2.00;;;8.60;99.90;;;;;;5113625;28;20211;-57
2023/04/16 02:56:11;;;;;;;5.22;1.80;;;8.60;99.90;;;;;;5113648;28;20166;-57
2023/04/16 02:58:37;;;;;;;6.63;2.10;;;8.60;99.90;;;;;;5113071;28;20174;-57
2023/04/16 03:01:03;;;;;;;5.05;2.15;;;8.60;99.90;;;;;;5113514;28;20567;-57
2023/04/16 03:03:28;;;;;;;4.97;2.22;;;8.60;99.90;;;;;;5113402;28;20665;-57
2023/04/16 03:05:54;;;;;;;5.13;2.30;;;8.60;99.90;;;;;;5113625;28;20184;-57
2023/04/16 03:08:20;;;;;;;4.10;2.03;;;8.60;99.90;;;;;;5113454;28;20180;-57
2023/04/16 03:10:45;;;;;;;4.75;2.03;;;8.60;99.90;;;;;;5113561;28;20176;-61
2023/04/16 03:13:11;;;;;;;3.53;1.95;;;8.60;99.90;;;;;;5113389;28;20549;-57
2023/04/16 03:15:37;;;;;;;4.63;2.05;;;8.60;99.90;;;;;;5113313;28;20165;-57
2023/04/16 03:18:02;;;;;;;4.53;2.03;;;8.50;99.90;;;;;;5113347;28;20162;-57
2023/04/16 03:20:28;;;;;;;5.32;2.28;;;8.60;99.90;;;;;;5095240;28;20592;-57
2023/04/16 03:22:54;;;;;;;4.75;2.20;;;8.50;99.90;;;;;;5113330;28;20704;-57
2023/04/16 03:25:20;;;;;;;3.50;2.10;;;8.50;99.90;;;;;;5113345;28;20174;-57
2023/04/16 03:27:45;;;;;;;3.22;2.20;;;8.50;99.90;;;;;;5113291;28;20188;-57
2023/04/16 03:30:15;;;;;;;5.82;2.97;;;8.50;99.90;;;;;;5113325;28;20223;-57
2023/04/16 03:32:41;;;;;;;7.88;2.75;;;8.50;99.90;;;;;;5113043;28;20183;-57
2023/04/16 03:35:08;;;;;;;4.82;2.90;;;8.50;99.90;;;;;;5113249;28;20270;-57
2023/04/16 03:37:34;;;;;;;6.10;3.15;;;8.60;99.90;;;;;;5113270;28;20169;-57
2023/04/16 03:40:00;;;;;;;5.10;3.13;;;8.60;99.90;;;;;;5113241;28;20185;-57
2023/04/16 03:42:26;;;;;;;4.57;3.22;;;8.60;99.90;;;;;;5113266;28;20203;-57
2023/04/16 03:44:52;;;;;;;5.10;2.90;;;8.60;99.90;;;;;;5113072;28;20219;-57
2023/04/16 03:47:19;;;;;;;4.75;2.97;;;8.60;99.90;;;;;;5113080;28;20620;-57
2023/04/16 03:49:45;;;;;;;3.63;2.88;;;8.60;99.90;;;;;;5112742;28;20253;-57
2023/04/16 03:52:10;;;;;;;2.85;2.58;;;8.60;99.90;;;;;;5113111;28;20208;-57
2023/04/16 03:54:36;;;;;;;4.35;2.60;;;8.50;99.90;;;;;;5113003;28;20205;-57
2023/04/16 03:57:02;;;;;;;5.72;2.70;;;8.50;99.90;;;;;;5113112;28;20180;-57
2023/04/16 03:59:27;;;;;;;3.72;2.40;;;8.60;99.90;;;;;;5112958;28;20201;-57
2023/04/16 04:01:53;;;;;;;4.13;2.33;;;8.60;99.90;;;;;;5113189;28;20181;-57
2023/04/16 04:04:19;;;;;;;4.93;2.38;;;8.50;99.90;;;;;;5113035;28;20200;-57
2023/04/16 04:06:45;;;;;;;4.63;2.42;;;8.50;99.90;;;;;;5112972;28;20176;-57
2023/04/16 04:09:12;;;;;;;4.75;1.88;;;8.60;99.90;;;;;;5113560;28;20184;-57
2023/04/16 04:11:37;;;;;;;5.93;2.00;;;8.50;99.90;;;;;;5116461;28;20181;-57
2023/04/16 04:14:04;;;;;;;5.10;1.90;;;8.50;99.90;;;;;;5116236;28;20209;-57
2023/04/16 04:16:30;;;;;;;5.30;1.90;;;8.50;99.90;;;;;;5116329;28;20177;-57
2023/04/16 04:18:56;;;;;;;4.75;1.77;;;8.60;99.90;;;;;;5116501;28;20194;-57
2023/04/16 04:21:21;;;;;;;5.97;1.67;;;8.60;99.90;;;;;;5116570;28;20182;-57
2023/04/16 04:23:47;;;;;;;3.70;1.67;;;8.60;99.90;;;;;;5116357;28;20265;-57
2023/04/16 04:26:13;;;;;;;5.15;1.70;;;8.60;99.90;;;;;;5116269;28;20205;-57
2023/04/16 04:28:38;;;;;;;3.50;1.70;;;8.70;99.90;;;;;;5116299;28;20620;-57
2023/04/16 04:31:04;;;;;;;4.35;1.80;;;8.70;99.90;;;;;;5116009;28;20632;-57
2023/04/16 04:33:30;;;;;;;4.95;1.65;;;8.70;99.90;;;;;;5116233;28;20543;-57
2023/04/16 04:35:56;;;;;;;7.32;1.77;;;8.60;99.90;;;;;;5116285;28;20451;-57
2023/04/16 04:38:24;;;;;;;3.75;1.92;;;8.60;99.90;;;;;;5116098;28;20639;-57
2023/04/16 04:40:51;;;;;;;6.85;2.00;;;8.60;99.90;;;;;;5115884;28;20173;-57
2023/04/16 04:43:18;;;;;;;6.45;1.80;;;8.60;99.90;;;;;;5115834;28;20173;-57
2023/04/16 04:45:44;;;;;;;5.03;1.70;;;8.70;99.90;;;;;;5116061;28;20184;-57
2023/04/16 04:48:10;;;;;;;4.78;2.00;;;8.60;99.90;;;;;;5115426;28;20248;-57
2023/04/16 04:50:36;;;;;;;5.88;2.20;;;8.60;99.90;;;;;;5115881;28;20254;-57
2023/04/16 04:53:01;;;;;;;5.30;2.05;;;8.60;99.90;;;;;;5115747;28;20641;-57
2023/04/16 04:55:27;;;;;;;3.97;2.15;;;8.60;99.90;;;;;;5115648;28;20571;-56
2023/04/16 04:57:53;;;;;;;6.18;1.88;;;8.60;99.90;;;;;;5115612;28;20653;-57
2023/04/16 05:00:18;;;;;;;5.90;2.08;;;8.70;99.90;;;;;;5115708;28;20195;-57
2023/04/16 05:02:44;;;;;;;5.85;2.28;;;8.70;99.90;;;;;;5115744;28;20176;-57
2023/04/16 05:05:10;;;;;;;3.50;1.88;;;8.60;99.90;;;;;;5115551;28;20528;-57
2023/04/16 05:07:35;;;;;;;5.97;1.98;;;8.50;99.90;;;;;;5115423;28;20174;-57
2023/04/16 05:10:01;;;;;;;3.85;1.80;;;8.60;99.90;;;;;;5115433;28;20509;-57
2023/04/16 05:12:27;;;;;;;4.32;1.88;;;8.50;99.90;;;;;;5115359;28;20180;-56
2023/04/16 05:14:52;;;;;;;3.92;2.05;;;8.50;99.90;;;;;;5115147;28;20205;-57
2023/04/16 05:17:18;;;;;;;6.70;2.50;;;8.50;99.90;;;;;;5115204;28;20181;-56
2023/04/16 05:19:44;;;;;;;7.75;2.30;;;8.50;99.90;;;;;;5115007;28;20533;-57
2023/04/16 05:22:09;;;;;;;4.05;2.40;;;8.40;99.90;;;;;;5115224;28;20173;-57
2023/04/16 05:24:35;;;;;;;2.97;1.98;;;8.50;99.90;;;;;;5115088;28;20181;-57
2023/04/16 05:27:01;;;;;;;5.28;2.13;;;8.40;99.90;;;;;;5115080;28;20252;-56
2023/04/16 05:29:27;;;;;;;4.40;2.05;;;8.40;99.90;;;;;;5114682;28;20299;-57
2023/04/16 05:31:52;;;;;;;4.95;2.28;;;8.50;99.90;;;;;;5115213;28;20169;-57
2023/04/16 05:34:18;;;;;;;4.75;2.10;;;8.50;99.90;;;;;;5114989;28;20556;-57
2023/04/16 05:36:44;;;;;;;4.00;2.25;;;8.50;99.90;;;;;;5115374;28;20258;-57
2023/04/16 05:39:10;;;;;;;4.70;2.20;;;8.50;99.90;;;;;;5114884;28;20177;-57
2023/04/16 05:41:35;;;;;;;4.90;2.28;;;8.60;99.90;;;;;;5114692;28;20169;-57
2023/04/16 05:44:01;;;;;;;6.05;2.53;;;8.60;99.90;;;;;;5096354;28;20184;-57
2023/04/16 05:46:27;;;;;;;5.60;2.38;;;8.50;99.90;;;;;;5114843;28;20176;-57
2023/04/16 05:48:52;;;;;;;4.00;2.40;;;8.40;99.90;;;;;;5114484;28;20665;-57
2023/04/16 05:51:19;;;;;;;6.15;2.50;;;8.50;99.90;;;;;;5113721;28;20173;-59
2023/04/16 05:53:44;;;;;;;3.63;2.33;;;8.50;99.90;;;;;;5095394;28;20601;-60
2023/04/16 05:56:10;;;;;;;3.42;2.22;;;8.50;99.90;;;;;;5096252;28;20183;-57
2023/04/16 05:58:36;;;;;;;3.47;2.58;;;8.50;99.90;;;;;;5114443;28;20170;-57
2023/04/16 06:01:02;;;;;;;5.40;2.90;;;8.50;99.90;;;;;;5094362;28;20588;-64
2023/04/16 06:03:28;;;;;;;4.55;2.58;;;8.50;99.90;;;;;;5095643;28;20198;-58
2023/04/16 06:05:54;;;;;;;6.25;3.08;;;8.50;99.90;;;;;;5095960;28;20636;-58
2023/04/16 06:08:19;;;;;;;4.40;2.92;;;8.50;99.90;;;;;;5095942;28;20228;-56
2023/04/16 06:10:46;;;;;;;5.00;2.70;;;8.50;99.90;;;;;;5078928;28;20630;-59
2023/04/16 06:13:12;;;;;;;9.43;3.05;;;8.60;99.90;;;;;;5113461;28;20178;-58
2023/04/16 06:15:38;;;;;;;7.85;3.00;;;8.60;99.90;;;;;;5076505;28;20179;-56
2023/04/16 06:18:04;;;;;;;6.20;2.97;;;8.60;99.90;;;;;;5092782;28;20229;-57
2023/04/16 06:20:30;;;;;;;5.13;2.78;;;8.60;99.90;;;;;;5112733;28;20169;-57
2023/04/16 06:22:55;;;;;;;6.90;3.25;;;8.60;99.90;;;;;;5095806;28;20173;-57
2023/04/16 06:25:22;;;;;;;5.00;2.97;;;8.60;99.90;;;;;;5114000;28;20170;-59
2023/04/16 06:27:48;;;;;;;6.00;3.42;;;8.50;99.90;;;;;;5114027;28;20172;-58
2023/04/16 06:30:16;;;;;;;6.55;3.15;;;8.60;99.90;;;;;;5095982;28;20203;-58
2023/04/16 06:32:43;;;;;;;6.78;3.30;;;8.60;99.90;;;;;;5095214;28;20177;-59
2023/04/16 06:35:09;;;;;;;5.43;3.05;;;8.60;99.90;;;;;;5079031;28;20211;-60
2023/04/16 06:37:35;;;;;;;5.65;3.25;;;8.60;99.90;;;;;;5095545;28;20180;-58
2023/04/16 06:40:01;;;;;;;6.00;3.33;;;8.70;99.90;;;;;;5129606;27;20521;-58
2023/04/16 06:42:26;;;;;;;8.27;3.90;;;8.70;99.90;;;;;;5079058;28;20196;-58
2023/04/16 06:44:52;;;;;;;7.15;3.97;;;8.70;99.90;;;;;;5095700;28;20523;-58
2023/04/16 06:47:18;;;;;;;7.03;4.22;;;8.70;99.90;;;;;;5113832;28;20170;-57
2023/04/16 06:49:44;;;;;;;11.45;4.70;;;8.70;99.90;;;;;;5095562;28;20690;-57
2023/04/16 06:52:10;;;;;;;12.52;4.78;;;8.70;99.90;;;;;;5095450;28;20314;-57
2023/04/16 06:54:36;;;;;;;9.10;5.20;;;8.70;99.90;;;;;;5095404;28;20209;-57
2023/04/16 06:57:02;;;;;;;7.97;5.20;;;8.60;99.90;;;;;;5095339;28;20189;-59
2023/04/16 06:59:28;;;;;;;9.20;5.32;;;8.60;99.90;;;;;;5112263;28;20191;-57
2023/04/16 07:01:54;;;;;;;20.73;14.05;;;8.60;99.90;;;;;;5095630;28;20169;-59
2023/04/16 07:04:20;;;;;;;13.95;8.57;;;8.70;99.90;;;;;;5078814;28;20547;-58
2023/04/16 07:06:46;;;;;;;14.30;8.70;;;8.70;99.90;;;;;;5113544;28;20170;-57
2023/04/16 07:09:12;;;;;;;10.43;5.55;;;8.70;99.90;;;;;;5113572;28;20647;-57
2023/04/16 07:11:38;;;;;;;14.20;6.65;;;8.80;99.90;;;;;;5078589;28;20632;-57
2023/04/16 07:14:04;;;;;;;29.08;20.10;;;8.70;99.90;;;;;;5076331;28;20217;-59
2023/04/16 07:16:30;;;;;;;15.60;8.65;;;8.70;99.90;;;;;;5095309;28;20169;-59
2023/04/16 07:18:56;;;;;;;10.25;6.82;;;8.70;99.90;;;;;;5095230;28;20626;-57
2023/04/16 07:21:22;;;;;;;10.25;7.38;;;8.70;99.90;;;;;;5095309;28;20174;-59
2023/04/16 07:23:48;;;;;;;12.40;7.45;;;8.60;99.90;;;;;;5095149;28;20210;-60
2023/04/16 07:26:13;;;;;;;13.60;7.70;;;8.60;99.90;;;;;;5078168;28;20179;-58
2023/04/16 07:28:39;;;;;;;10.70;7.43;;;8.60;99.90;;;;;;5095457;28;20177;-58
2023/04/16 07:31:05;;;;;;;11.30;5.90;;;8.60;99.90;;;;;;5094662;28;20663;-62
2023/04/16 07:33:31;;;;;;;8.90;6.22;;;8.70;99.90;;;;;;5078147;28;20209;-57
2023/04/16 07:35:57;;;;;;;8.80;5.95;;;8.70;99.90;;;;;;5113027;28;20505;-58
2023/04/16 07:38:23;;;;;;;10.02;5.55;;;8.80;99.90;;;;;;5078096;28;20234;-57
2023/04/16 07:40:49;;;;;;;10.80;6.35;;;8.80;99.90;;;;;;5061148;28;20212;-58
2023/04/16 07:43:15;;;;;;;11.98;7.10;;;8.80;99.90;;;;;;5062282;28;20180;-58
2023/04/16 07:45:41;;;;;;;11.35;6.28;;;8.80;99.90;;;;;;5098450;28;20271;-58
2023/04/16 07:48:07;;;;;;;8.88;5.70;;;8.80;99.90;;;;;;5098465;28;20256;-62
2023/04/16 07:50:32;;;;;;;9.20;5.68;;;8.80;99.90;;;;;;5081732;28;20630;-58
2023/04/16 07:52:58;;;;;;;10.23;7.10;;;8.80;99.90;;;;;;5081560;28;20177;-58
2023/04/16 07:55:24;;;;;;;9.98;6.40;;;8.80;99.90;;;;;;5116458;28;20232;-58
2023/04/16 07:57:50;;;;;;;9.18;6.10;;;8.90;99.90;;;;;;5116865;28;20184;-57
2023/04/16 08:00:15;;;;;;;9.95;6.45;;;8.90;99.90;;;;;;5098538;28;20191;-58
2023/04/16 08:02:42;;;;;;;8.73;5.95;;;8.80;99.90;;;;;;5116408;27;20652;-57
2023/04/16 08:05:08;;;;;;;10.70;6.90;;;8.80;99.90;;;;;;5137313;27;20264;-58
2023/04/16 08:07:34;;;;;;;10.70;7.28;;;8.90;99.90;;;;;;5137411;27;20194;-58
2023/04/16 08:10:00;;;;;;;10.20;7.05;;;8.90;99.90;;;;;;5137095;27;20212;-61
2023/04/16 08:12:25;;;;;;;10.38;6.50;;;8.90;99.90;;;;;;5118982;27;20219;-57
2023/04/16 08:14:51;;;;;;;10.18;6.50;;;9.00;99.90;;;;;;5118818;27;20224;-57
2023/04/16 08:17:17;;;;;;;11.48;7.30;;;9.00;99.90;;;;;;5118669;27;20588;-57
2023/04/16 08:19:44;;;;;;;10.45;6.68;;;9.10;99.90;;;;;;5136894;27;20204;-59
2023/04/16 08:22:13;;;;;;;9.02;5.95;;;9.10;99.90;;;;;;5136873;27;20164;-57
2023/04/16 08:24:39;;;;;;;9.38;6.20;;;9.00;99.90;;;;;;5137181;27;20183;-57
2023/04/16 08:27:05;;;;;;;9.80;6.60;;;9.00;99.90;;;;;;5118684;27;20180;-57
2023/04/16 08:29:31;;;;;;;9.68;6.57;;;9.00;99.90;;;;;;5130625;27;20174;-57
2023/04/16 08:31:57;;;;;;;8.20;5.95;;;9.20;99.90;;;;;;5116239;28;20170;-57
2023/04/16 08:34:23;;;;;;;9.23;6.15;;;9.30;99.90;;;;;;5116153;28;20207;-57
2023/04/16 08:36:48;;;;;;;8.85;5.35;;;9.30;99.90;;;;;;5116132;28;20252;-57
2023/04/16 08:39:14;;;;;;;8.82;5.57;;;9.20;99.90;;;;;;5115939;28;20201;-57
2023/04/16 08:41:45;;;;;;;12.77;5.93;;;9.20;99.90;;;;;;5115949;28;20180;-57
2023/04/16 08:44:20;;;;;;;10.25;5.55;;;9.30;99.90;;;;;;5116137;28;20180;-57
2023/04/16 08:46:46;;;;;;;8.02;5.68;;;9.30;99.90;;;;;;5115585;28;20172;-57
2023/04/16 08:49:19;;;;;;;8.93;5.40;;;9.20;99.90;;;;;;5115470;28;20224;-57
2023/04/16 08:51:50;;;;;;;9.00;5.55;;;9.30;99.90;;;;;;5115762;28;20165;-57
2023/04/16 08:54:30;;;;;;;9.15;5.15;;;9.30;99.90;;;;;;5115520;28;20686;-57
2023/04/16 08:56:57;;;;;;;6.85;5.22;;;9.30;99.90;;;;;;5114894;28;20258;-57
2023/04/16 08:59:24;;;;;;;7.78;4.85;;;9.30;99.90;;;;;;5115381;28;20204;-57
2023/04/16 09:01:51;;;;;;;7.60;5.07;;;9.30;99.90;;;;;;5115469;28;20170;-57
2023/04/16 09:04:18;;;;;;;8.55;5.35;;;9.30;99.90;;;;;;5115101;28;20188;-57
2023/04/16 09:06:46;;;;;;;8.27;5.22;;;9.30;99.90;;;;;;5115656;28;20218;-57
2023/04/16 09:09:12;;;;;;;7.68;5.47;;;9.40;99.90;;;;;;5097168;28;20181;-57
2023/04/16 09:11:38;;;;;;;8.90;5.40;;;9.40;99.90;;;;;;5115307;28;20173;-57
2023/04/16 09:14:09;;;;;;;5.70;4.78;;;9.50;99.90;;;;;;5115105;28;20675;-57
2023/04/16 09:16:35;;;;;;;6.47;4.72;;;9.40;99.90;;;;;;5112340;28;20161;-57
2023/04/16 09:19:01;;;;;;;7.97;4.70;;;9.40;99.90;;;;;;5114023;28;20222;-57
2023/04/16 09:21:26;;;;;;;8.48;5.03;;;9.30;99.90;;;;;;5113417;27;20235;-57
2023/04/16 09:23:53;;;;;;;6.93;4.82;;;9.30;99.90;;;;;;5134397;27;20619;-57
2023/04/16 09:26:20;;;;;;;9.02;5.50;;;9.40;99.90;;;;;;5135358;27;20184;-57
2023/04/16 09:28:47;;;;;;;7.30;5.07;;;9.40;99.90;;;;;;5135480;27;20543;-57
2023/04/16 09:31:15;;;;;;;8.82;5.35;;;9.40;99.90;;;;;;5135186;27;20630;-58
2023/04/16 09:33:42;;;;;;;8.43;5.22;;;9.50;99.90;;;;;;5135416;27;20558;-57
2023/04/16 09:36:08;;;;;;;9.20;5.10;;;9.50;99.90;;;;;;5135510;27;20257;-57
2023/04/16 09:38:47;;;;;;;8.13;5.47;;;9.50;99.90;;;;;;5135318;27;20175;-57
2023/04/16 09:41:15;;;;;;;6.43;4.93;;;9.50;99.90;;;;;;5135501;27;20184;-57
2023/04/16 09:43:48;;;;;;;11.10;5.28;;;9.40;99.90;;;;;;5135265;27;20191;-57
2023/04/16 09:46:14;;;;;;;9.45;5.15;;;9.40;99.90;;;;;;5135439;27;20169;-57
2023/04/16 09:48:39;;;;;;;7.75;5.35;;;9.40;99.90;;;;;;5135094;27;20307;-57
2023/04/16 09:51:06;;;;;;;8.57;5.30;;;9.40;99.90;;;;;;5135104;27;20217;-56
2023/04/16 09:53:31;;;;;;;9.00;8.05;;;9.50;99.90;;;;;;5135026;27;20204;-57
2023/04/16 09:55:58;;;;;;;7.47;6.25;;;9.50;99.90;;;;;;5133615;27;20173;-57
2023/04/16 09:58:24;;;;;;;9.13;6.60;;;9.50;99.90;;;;;;5113823;28;20173;-58
2023/04/16 10:01:10;;;;;;;9.23;6.10;;;9.50;99.90;;;;;;5112741;28;20182;-57
2023/04/16 10:03:40;;;;;;;7.13;5.70;;;9.50;99.90;;;;;;5113901;28;20189;-58
2023/04/16 10:06:05;;;;;;;8.25;5.50;;;9.60;99.90;;;;;;5113854;28;20536;-58
2023/04/16 10:08:31;;;;;;;9.07;5.90;;;9.50;99.90;;;;;;5113678;28;20165;-57
2023/04/16 10:10:57;;;;;;;8.38;5.57;;;9.50;99.90;;;;;;5113622;28;20196;-58
2023/04/16 10:13:26;;;;;;;8.48;5.53;;;9.60;99.90;;;;;;5113984;28;20190;-58
2023/04/16 10:15:56;;;;;;;12.00;5.05;;;9.60;99.90;;;;;;5114058;28;20177;-57
2023/04/16 10:18:22;;;;;;;10.02;5.10;;;9.60;99.90;;;;;;5113348;28;20190;-59
2023/04/16 10:20:49;;;;;;;8.80;5.47;;;9.60;99.90;;;;;;5114088;28;20162;-56
2023/04/16 10:23:15;;;;;;;10.98;5.70;;;9.60;99.90;;;;;;5113960;28;20169;-57
2023/04/16 10:25:41;;;;;;;10.00;6.30;;;9.50;99.90;;;;;;5114084;28;20259;-59
2023/04/16 10:28:08;;;;;;;8.90;6.05;;;9.50;99.90;;;;;;5114225;28;20157;-57
2023/04/16 10:30:35;;;;;;;10.38;6.13;;;9.50;99.90;;;;;;5095805;28;20625;-57
2023/04/16 10:33:03;;;;;;;12.38;6.60;;;9.60;99.90;;;;;;5113919;28;20172;-57
2023/04/16 10:35:30;;;;;;;11.40;5.65;;;9.70;99.90;;;;;;5113734;28;20209;-57
2023/04/16 10:37:56;;;;;;;9.07;4.85;;;9.70;99.90;;;;;;5112931;28;20173;-59
2023/04/16 10:40:23;;;;;;;8.70;5.03;;;9.70;99.90;;;;;;5113598;28;20176;-58
2023/04/16 10:43:00;;;;;;;8.23;5.20;;;9.60;99.90;;;;;;5113611;28;20171;-59
2023/04/16 10:45:31;;;;;;;9.20;5.57;;;9.60;99.90;;;;;;5113799;28;20180;-57
2023/04/16 10:47:57;;;;;;;9.10;5.72;;;9.50;99.90;;;;;;5113552;28;20232;-57
2023/04/16 10:50:23;;;;;;;11.18;6.57;;;9.60;99.90;;;;;;5113609;28;20173;-58
2023/04/16 10:53:09;;;;;;;9.23;5.53;;;9.50;99.90;;;;;;5113801;28;20569;-58
2023/04/16 10:55:38;;;;;;;9.43;6.70;;;9.50;99.90;;;;;;5113542;28;20192;-58
2023/04/16 10:58:27;;;;;;;11.35;6.55;;;9.50;99.90;;;;;;5113606;28;20169;-58
2023/04/16 11:00:53;;;;;;;7.43;5.45;;;9.50;99.90;;;;;;5113489;28;20165;-60
2023/04/16 11:03:18;;;;;;;9.15;5.47;;;9.50;99.90;;;;;;5113727;28;20253;-59
2023/04/16 11:05:47;;;;;;;10.55;5.45;;;9.50;99.90;;;;;;5113671;28;20252;-58
2023/04/16 11:08:14;;;;;;;9.60;5.63;;;9.50;99.90;;;;;;5113616;28;20530;-60
2023/04/16 11:10:41;;;;;;;9.00;5.80;;;9.50;99.90;;;;;;5113442;28;20173;-58
2023/04/16 11:13:07;;;;;;;9.63;5.55;;;9.50;99.90;;;;;;5113492;28;20230;-58
2023/04/16 11:15:33;;;;;;;8.13;5.47;;;9.60;99.90;;;;;;5113245;28;20678;-58
2023/04/16 11:17:59;;;;;;;9.27;5.60;;;9.70;99.90;;;;;;5096087;28;20222;-60
2023/04/16 11:20:26;;;;;;;12.73;6.20;;;9.60;99.90;;;;;;5099553;28;20176;-58
2023/04/16 11:22:54;;;;;;;8.60;6.07;;;9.70;99.90;;;;;;5117481;28;20173;-57
2023/04/16 11:25:23;;;;;;;7.80;5.35;;;9.70;99.90;;;;;;5117508;28;20230;-58
2023/04/16 11:27:50;;;;;;;9.13;6.60;;;9.80;99.90;;;;;;5117342;28;20306;-58
2023/04/16 11:30:17;;;;;;;8.98;6.63;;;9.70;99.90;;;;;;5117310;28;20177;-60
2023/04/16 11:32:43;;;;;;;10.82;6.63;;;9.70;99.90;;;;;;5117494;28;20188;-59
2023/04/16 11:35:16;;;;;;;9.00;7.35;;;9.70;99.90;;;;;;5117286;28;20201;-59
2023/04/16 11:37:43;;;;;;;12.63;7.57;;;9.80;99.90;;;;;;5117347;28;20162;-58
2023/04/16 11:40:09;;;;;;;9.88;7.75;;;9.80;99.90;;;;;;5117167;28;20180;-59
2023/04/16 11:42:39;;;;;;;10.05;6.18;;;9.90;99.90;;;;;;5098736;28;20524;-59
2023/04/16 11:45:10;;;;;;;11.80;6.38;;;10.00;99.90;;;;;;5117111;28;20509;-59
2023/04/16 11:47:50;;;;;;;9.50;6.90;;;10.10;99.90;;;;;;5116911;28;20166;-59
2023/04/16 11:50:23;;;;;;;9.35;6.47;;;10.10;99.90;;;;;;5117019;28;20193;-59
2023/04/16 11:52:50;;;;;;;7.95;5.75;;;10.20;99.90;;;;;;5117054;28;20186;-58
2023/04/16 11:55:16;;;;;;;9.77;5.95;;;10.20;99.90;;;;;;5116721;28;20619;-58
2023/04/16 11:57:41;;;;;;;7.65;5.55;;;10.20;99.90;;;;;;5117027;28;20197;-58
2023/04/16 12:00:17;;;;;;;7.20;5.25;;;10.30;99.90;;;;;;5116911;28;20168;-57
2023/04/16 12:02:50;;;;;;;10.65;5.72;;;10.30;99.90;;;;;;5116915;28;20267;-58
2023/04/16 12:05:37;;;;;;;9.10;6.60;;;10.20;99.90;;;;;;5098586;28;20178;-58
2023/04/16 12:08:11;;;;;;;12.15;8.05;;;10.30;99.90;;;;;;5116674;28;20173;-60
2023/04/16 12:10:53;;;;;;;12.05;10.43;;;10.20;99.90;;;;;;5116535;28;20591;-58
2023/04/16 12:13:19;;;;;;;13.02;9.75;;;10.30;99.90;;;;;;5116483;28;20694;-57
2023/04/16 12:15:48;;;;;;;10.05;7.30;;;10.30;99.90;;;;;;5116411;28;20276;-60
2023/04/16 12:18:18;;;;;;;11.35;6.78;;;10.40;99.90;;;;;;5116404;28;20197;-59
2023/04/16 12:20:45;;;;;;;12.30;7.65;;;10.40;99.90;;;;;;5116518;28;20179;-58
2023/04/16 12:23:22;;;;;;;12.10;9.52;;;10.40;99.90;;;;;;5116432;28;20173;-58
2023/04/16 12:25:48;;;;;;;9.63;7.47;;;10.20;99.90;;;;;;5116338;28;20226;-58
2023/04/16 12:28:26;;;;;;;10.68;5.75;;;10.20;99.90;;;;;;5116097;28;20192;-58
2023/04/16 12:30:51;;;;;;;14.68;9.48;;;10.20;99.90;;;;;;5115321;28;20192;-59
2023/04/16 12:33:18;;;;;;;9.65;7.05;;;10.30;99.90;;;;;;5116194;28;20639;-59
2023/04/16 12:35:44;;;;;;;11.30;7.90;;;10.20;99.90;;;;;;5116014;28;20260;-58
2023/04/16 12:38:10;;;;;;;9.82;6.35;;;10.20;99.90;;;;;;5115947;28;20661;-59
2023/04/16 12:40:37;;;;;;;9.25;6.18;;;10.30;99.90;;;;;;5115941;28;20257;-59
2023/04/16 12:43:02;;;;;;;8.73;5.38;;;10.40;99.90;;;;;;5115878;28;20558;-60
2023/04/16 12:45:28;;;;;;;7.07;5.22;;;10.60;99.90;;;;;;5116141;28;20188;-58
2023/04/16 12:47:54;;;;;;;8.23;5.03;;;10.70;99.90;;;;;;5115883;28;20529;-57
2023/04/16 12:50:20;;;;;;;9.55;5.18;;;10.80;99.90;;;;;;5115977;28;20165;-58
2023/04/16 12:52:46;;;;;;;8.20;4.50;;;10.90;99.90;;;;;;5115609;28;20642;-58